Time;durP1;ratioP1;P1;durP2;ratioP2;P2;SDS_P1;SDS_P2;PMS_P1;PMS_P2;Temp;Humidity;BMP_temperature;BMP_pressure;BME280_temperature;BME280_humidity;BME280_pressure;Samples;Min_cycle;Max_cycle;Signal;HPM_P1;HPM_P2
2024/02/06 00:01:27;;;;;;;31.75;30.02;;;;;;;;;;5019577;28;20029;-51
2024/02/06 00:03:55;;;;;;;33.65;31.40;;;;;;;;;;5019316;28;20025;-65
2024/02/06 00:06:21;;;;;;;30.45;28.75;;;;;;;;;;5020288;28;20033;-64
2024/02/06 00:08:46;;;;;;;31.05;29.30;;;;;;;;;;5019602;28;20041;-65
2024/02/06 00:11:12;;;;;;;32.25;30.55;;;;;;;;;;5016040;28;20108;-51
2024/02/06 00:13:38;;;;;;;30.40;28.70;;;;;;;;;;5021105;28;20041;-49
2024/02/06 00:16:11;;;;;;;34.45;32.58;;;;;;;;;;5024806;28;20056;-52
2024/02/06 00:18:36;;;;;;;33.90;31.05;;;;;;;;;;5019744;28;20044;-51
2024/02/06 00:21:02;;;;;;;33.08;31.27;;;;;;;;;;5020760;28;20034;-65
2024/02/06 00:23:27;;;;;;;34.55;32.72;;;;;;;;;;5018678;28;20482;-52
2024/02/06 00:25:53;;;;;;;35.78;33.78;;;;;;;;;;5019186;28;20034;-65
2024/02/06 00:28:19;;;;;;;35.08;33.17;;;;;;;;;;5018247;28;20034;-65
2024/02/06 00:30:44;;;;;;;33.60;31.80;;;;;;;;;;5018751;28;20076;-65
2024/02/06 00:33:09;;;;;;;34.55;32.28;;;;;;;;;;5020403;28;20439;-50
2024/02/06 00:35:35;;;;;;;34.70;32.75;;;;;;;;;;5019352;28;20030;-65
2024/02/06 00:38:00;;;;;;;36.60;34.63;;;;;;;;;;5020425;28;20068;-65
2024/02/06 00:40:25;;;;;;;33.83;31.38;;;;;;;;;;5021122;28;20034;-52
2024/02/06 00:42:50;;;;;;;34.00;32.20;;;;;;;;;;5021777;28;21070;-65
2024/02/06 00:45:19;;;;;;;36.83;34.60;;;;;;;;;;5019299;28;20657;-48
2024/02/06 00:47:48;;;;;;;34.25;32.20;;;;;;;;;;5019085;28;20033;-51
2024/02/06 00:50:14;;;;;;;34.53;32.72;;;;;;;;;;5019228;28;20037;-51
2024/02/06 00:52:40;;;;;;;33.63;31.83;;;;;;;;;;5020073;28;20091;-49
2024/02/06 00:55:05;;;;;;;34.20;32.30;;;;;;;;;;5021149;28;20473;-48
2024/02/06 00:57:31;;;;;;;31.02;29.40;;;;;;;;;;5018249;28;20044;-64
2024/02/06 00:59:56;;;;;;;31.92;30.10;;;;;;;;;;5017353;28;20369;-50
2024/02/06 01:02:23;;;;;;;31.75;29.85;;;;;;;;;;5018158;28;20038;-65
2024/02/06 01:04:48;;;;;;;32.72;30.92;;;;;;;;;;5016092;28;20033;-65
2024/02/06 01:07:13;;;;;;;31.75;29.73;;;;;;;;;;5017870;28;20357;-51
2024/02/06 01:09:39;;;;;;;32.90;31.13;;;;;;;;;;5018300;28;20030;-49
2024/02/06 01:12:05;;;;;;;31.95;30.25;;;;;;;;;;5020100;28;20419;-64
2024/02/06 01:14:30;;;;;;;33.42;31.63;;;;;;;;;;5019299;28;20034;-65
2024/02/06 01:16:55;;;;;;;33.28;31.48;;;;;;;;;;5019713;28;20060;-51
2024/02/06 01:19:20;;;;;;;32.78;30.70;;;;;;;;;;5019776;28;20045;-65
2024/02/06 01:21:46;;;;;;;31.17;29.58;;;;;;;;;;5020088;28;20064;-65
2024/02/06 01:24:11;;;;;;;32.28;30.25;;;;;;;;;;5019537;28;20038;-64
2024/02/06 01:26:37;;;;;;;32.15;30.15;;;;;;;;;;5016893;28;20093;-65
2024/02/06 01:29:02;;;;;;;33.42;31.52;;;;;;;;;;5023002;28;20048;-49
2024/02/06 01:31:27;;;;;;;29.75;27.95;;;;;;;;;;5017283;28;20087;-50
2024/02/06 01:33:53;;;;;;;32.70;30.65;;;;;;;;;;5016193;28;20056;-52
2024/02/06 01:36:19;;;;;;;28.88;27.38;;;;;;;;;;5017666;28;20051;-64
2024/02/06 01:38:44;;;;;;;32.20;30.33;;;;;;;;;;5019655;28;20044;-50
2024/02/06 01:41:09;;;;;;;33.00;30.75;;;;;;;;;;5018362;28;20584;-52
2024/02/06 01:43:35;;;;;;;31.98;29.83;;;;;;;;;;5015856;28;20462;-65
2024/02/06 01:46:00;;;;;;;30.80;29.02;;;;;;;;;;5020115;28;20041;-65
2024/02/06 01:48:26;;;;;;;30.55;28.73;;;;;;;;;;5019351;28;20029;-51
2024/02/06 01:50:52;;;;;;;27.95;26.45;;;;;;;;;;5015153;28;20033;-65
2024/02/06 01:53:19;;;;;;;30.17;28.58;;;;;;;;;;5017641;28;20087;-51
2024/02/06 01:55:46;;;;;;;30.20;28.58;;;;;;;;;;5017285;28;20034;-50
2024/02/06 01:58:12;;;;;;;30.50;28.42;;;;;;;;;;5017903;28;20033;-64
2024/02/06 02:00:39;;;;;;;29.73;27.92;;;;;;;;;;5018304;28;20133;-65
2024/02/06 02:03:07;;;;;;;29.88;27.98;;;;;;;;;;5019987;28;20481;-65
2024/02/06 02:05:33;;;;;;;30.45;28.65;;;;;;;;;;5023390;28;20041;-50
2024/02/06 02:07:58;;;;;;;28.27;26.77;;;;;;;;;;5018611;28;20029;-64
2024/02/06 02:10:24;;;;;;;29.52;27.70;;;;;;;;;;5017822;28;20045;-64
2024/02/06 02:12:49;;;;;;;28.77;27.27;;;;;;;;;;5016447;28;20068;-52
2024/02/06 02:15:15;;;;;;;29.83;28.13;;;;;;;;;;5017232;28;20030;-51
2024/02/06 02:17:40;;;;;;;31.42;29.55;;;;;;;;;;5016792;28;20037;-65
2024/02/06 02:20:06;;;;;;;28.80;27.20;;;;;;;;;;5017739;28;20236;-50
2024/02/06 02:22:32;;;;;;;29.38;27.05;;;;;;;;;;5019880;28;20029;-65
2024/02/06 02:24:58;;;;;;;29.30;27.70;;;;;;;;;;5016887;28;20115;-64
2024/02/06 02:27:24;;;;;;;30.58;28.70;;;;;;;;;;5021031;28;20057;-50
2024/02/06 02:29:51;;;;;;;31.10;27.85;;;;;;;;;;5023915;28;20037;-64
2024/02/06 02:32:17;;;;;;;29.35;27.77;;;;;;;;;;5022741;28;20053;-64
2024/02/06 02:34:47;;;;;;;28.60;27.00;;;;;;;;;;5020331;28;20387;-65
2024/02/06 02:37:12;;;;;;;28.67;27.10;;;;;;;;;;5021127;28;20041;-50
2024/02/06 02:39:38;;;;;;;31.10;29.35;;;;;;;;;;5020773;28;20038;-64
2024/02/06 02:42:04;;;;;;;29.77;28.17;;;;;;;;;;5021899;28;20053;-53
2024/02/06 02:44:29;;;;;;;30.02;28.33;;;;;;;;;;5019807;28;20076;-64
2024/02/06 02:46:55;;;;;;;29.38;27.73;;;;;;;;;;5019592;28;21304;-53
2024/02/06 02:49:20;;;;;;;30.05;28.15;;;;;;;;;;5020843;28;20072;-48
2024/02/06 02:51:45;;;;;;;33.75;31.90;;;;;;;;;;5021034;28;20032;-53
2024/02/06 02:54:11;;;;;;;32.10;30.10;;;;;;;;;;5020356;28;20530;-52
2024/02/06 02:56:36;;;;;;;32.53;30.80;;;;;;;;;;5021735;28;20550;-64
2024/02/06 02:59:02;;;;;;;36.75;34.58;;;;;;;;;;5022188;28;20039;-65
2024/02/06 03:01:27;;;;;;;31.58;29.88;;;;;;;;;;5018538;28;20046;-52
2024/02/06 03:03:52;;;;;;;30.60;28.92;;;;;;;;;;5019574;28;20030;-50
2024/02/06 03:06:18;;;;;;;32.95;31.23;;;;;;;;;;5023162;28;20037;-64
2024/02/06 03:08:44;;;;;;;33.40;31.65;;;;;;;;;;5016048;28;20107;-64
2024/02/06 03:11:09;;;;;;;33.10;31.17;;;;;;;;;;5022566;28;20057;-65
2024/02/06 03:13:36;;;;;;;33.05;30.95;;;;;;;;;;5020086;28;20026;-64
2024/02/06 03:16:01;;;;;;;33.45;31.67;;;;;;;;;;5019429;28;20150;-52
2024/02/06 03:18:26;;;;;;;30.05;28.48;;;;;;;;;;5049318;28;20522;-52
2024/02/06 03:20:52;;;;;;;31.67;29.92;;;;;;;;;;5019437;28;20617;-64
2024/02/06 03:23:19;;;;;;;32.70;30.98;;;;;;;;;;5020220;28;20033;-64
2024/02/06 03:25:44;;;;;;;33.97;32.20;;;;;;;;;;5016993;28;20046;-51
2024/02/06 03:28:09;;;;;;;36.88;34.88;;;;;;;;;;5021003;28;20116;-51
2024/02/06 03:30:35;;;;;;;36.63;34.63;;;;;;;;;;5020147;28;20110;-48
2024/02/06 03:33:00;;;;;;;38.47;36.22;;;;;;;;;;5021554;28;20041;-49
2024/02/06 03:35:25;;;;;;;43.30;40.85;;;;;;;;;;5020002;28;20025;-64
2024/02/06 03:37:51;;;;;;;42.45;40.20;;;;;;;;;;5020842;28;20530;-64
2024/02/06 03:40:16;;;;;;;44.65;42.10;;;;;;;;;;5022376;28;20120;-64
2024/02/06 03:42:41;;;;;;;49.75;45.25;;;;;;;;;;5019793;28;20104;-64
2024/02/06 03:45:07;;;;;;;49.08;46.58;;;;;;;;;;5022284;28;20049;-50
2024/02/06 03:47:32;;;;;;;50.95;48.35;;;;;;;;;;5018707;28;20116;-52
2024/02/06 03:49:58;;;;;;;54.00;51.25;;;;;;;;;;5020025;28;20474;-49
2024/02/06 03:52:23;;;;;;;60.38;56.97;;;;;;;;;;5018120;28;20183;-64
2024/02/06 03:54:48;;;;;;;71.43;67.72;;;;;;;;;;5015595;28;20100;-49
2024/02/06 03:57:14;;;;;;;69.68;66.15;;;;;;;;;;5014505;28;20443;-64
2024/02/06 03:59:39;;;;;;;72.68;68.95;;;;;;;;;;5018532;28;20029;-64
2024/02/06 04:02:05;;;;;;;75.00;71.25;;;;;;;;;;5019172;28;20041;-64
2024/02/06 04:04:30;;;;;;;77.68;73.78;;;;;;;;;;5018470;28;20030;-64
2024/02/06 04:06:56;;;;;;;74.90;71.10;;;;;;;;;;5017268;28;20539;-64
2024/02/06 04:09:27;;;;;;;79.90;75.32;;;;;;;;;;5020393;28;20033;-65
2024/02/06 04:11:53;;;;;;;76.13;72.25;;;;;;;;;;5018797;28;20029;-51
2024/02/06 04:14:18;;;;;;;80.93;76.63;;;;;;;;;;5018360;28;20051;-50
2024/02/06 04:16:44;;;;;;;84.15;79.75;;;;;;;;;;5020538;28;20048;-64
2024/02/06 04:19:09;;;;;;;88.45;83.93;;;;;;;;;;5019333;28;20052;-64
2024/02/06 04:21:35;;;;;;;85.88;81.40;;;;;;;;;;5021494;28;20404;-64
2024/02/06 04:24:00;;;;;;;87.50;82.80;;;;;;;;;;5016524;28;20037;-50
2024/02/06 04:26:26;;;;;;;92.20;87.57;;;;;;;;;;5019078;28;20040;-51
2024/02/06 04:28:51;;;;;;;90.00;85.47;;;;;;;;;;5020244;28;20156;-51
2024/02/06 04:31:16;;;;;;;89.00;84.53;;;;;;;;;;5019759;28;20133;-47
2024/02/06 04:33:42;;;;;;;90.38;85.78;;;;;;;;;;5016066;28;20135;-65
2024/02/06 04:36:07;;;;;;;92.78;87.88;;;;;;;;;;5018491;28;20049;-64
2024/02/06 04:38:32;;;;;;;94.97;90.05;;;;;;;;;;5020298;28;20032;-64
2024/02/06 04:40:58;;;;;;;96.22;91.18;;;;;;;;;;5018358;28;20065;-64
2024/02/06 04:43:23;;;;;;;99.10;94.18;;;;;;;;;;5016510;28;20037;-50
2024/02/06 04:45:48;;;;;;;98.40;93.47;;;;;;;;;;5020251;28;20029;-53
2024/02/06 04:48:14;;;;;;;104.70;98.97;;;;;;;;;;5019678;28;20037;-64
2024/02/06 04:50:39;;;;;;;105.00;99.78;;;;;;;;;;5019626;28;20067;-64
2024/02/06 04:53:05;;;;;;;106.65;101.15;;;;;;;;;;5022502;28;20044;-64
2024/02/06 04:55:31;;;;;;;105.57;100.32;;;;;;;;;;5019630;28;20037;-64
2024/02/06 04:57:58;;;;;;;108.72;103.18;;;;;;;;;;5018610;28;20055;-50
2024/02/06 05:00:24;;;;;;;108.20;102.72;;;;;;;;;;5018491;28;20025;-52
2024/02/06 05:02:49;;;;;;;101.50;96.45;;;;;;;;;;5016906;28;20379;-51
2024/02/06 05:05:15;;;;;;;108.13;102.28;;;;;;;;;;5016582;28;20045;-64
2024/02/06 05:07:41;;;;;;;113.35;107.68;;;;;;;;;;5023598;28;20029;-64
2024/02/06 05:10:10;;;;;;;106.07;100.60;;;;;;;;;;5016975;28;20049;-64
2024/02/06 05:12:35;;;;;;;116.90;110.85;;;;;;;;;;5019828;28;20133;-50
2024/02/06 05:15:01;;;;;;;117.57;111.70;;;;;;;;;;5018309;28;20077;-64
2024/02/06 05:17:26;;;;;;;120.20;114.22;;;;;;;;;;5018629;28;20604;-51
2024/02/06 05:19:52;;;;;;;120.50;114.38;;;;;;;;;;5017581;28;20029;-50
2024/02/06 05:22:17;;;;;;;121.97;115.78;;;;;;;;;;5020961;28;20049;-50
2024/02/06 05:24:45;;;;;;;115.22;108.82;;;;;;;;;;5017568;28;20026;-63
2024/02/06 05:27:11;;;;;;;110.50;105.00;;;;;;;;;;5018808;28;20045;-63
2024/02/06 05:29:36;;;;;;;113.60;107.95;;;;;;;;;;5016569;28;20029;-63
2024/02/06 05:32:02;;;;;;;111.10;105.43;;;;;;;;;;5003166;28;20034;-53
2024/02/06 05:34:27;;;;;;;108.18;102.78;;;;;;;;;;5022767;28;20091;-52
2024/02/06 05:36:53;;;;;;;112.75;107.07;;;;;;;;;;5017585;28;20038;-49
2024/02/06 05:39:18;;;;;;;109.07;103.45;;;;;;;;;;5017761;28;20033;-51
2024/02/06 05:41:44;;;;;;;112.97;107.28;;;;;;;;;;5013757;28;20057;-51
2024/02/06 05:44:09;;;;;;;107.35;101.97;;;;;;;;;;5020202;28;20196;-53
2024/02/06 05:46:35;;;;;;;112.20;106.57;;;;;;;;;;5021198;28;20461;-50
2024/02/06 05:49:01;;;;;;;108.07;102.68;;;;;;;;;;5010966;28;20116;-50
2024/02/06 05:51:26;;;;;;;112.50;106.85;;;;;;;;;;5020512;28;20116;-52
2024/02/06 05:53:52;;;;;;;108.72;103.30;;;;;;;;;;5016922;28;20048;-53
2024/02/06 05:56:17;;;;;;;107.78;102.10;;;;;;;;;;5014680;28;20041;-52
2024/02/06 05:58:42;;;;;;;97.28;91.97;;;;;;;;;;5015121;28;20479;-53
2024/02/06 06:01:08;;;;;;;100.32;94.95;;;;;;;;;;5017479;28;20029;-49
2024/02/06 06:03:34;;;;;;;96.22;91.43;;;;;;;;;;5018273;28;20032;-48
2024/02/06 06:05:59;;;;;;;98.18;93.28;;;;;;;;;;5017768;28;20041;-47
2024/02/06 06:08:25;;;;;;;104.47;99.28;;;;;;;;;;5018836;28;20499;-52
2024/02/06 06:10:50;;;;;;;101.03;95.97;;;;;;;;;;5013172;28;20497;-49
2024/02/06 06:13:16;;;;;;;100.47;95.45;;;;;;;;;;5020519;28;20025;-48
2024/02/06 06:15:41;;;;;;;100.90;95.85;;;;;;;;;;5016394;28;20029;-51
2024/02/06 06:18:07;;;;;;;101.40;96.10;;;;;;;;;;5017615;28;20080;-49
2024/02/06 06:20:32;;;;;;;103.40;98.07;;;;;;;;;;5018361;28;20471;-54
2024/02/06 06:22:58;;;;;;;104.68;99.20;;;;;;;;;;5017661;28;20121;-51
2024/02/06 06:25:23;;;;;;;91.10;86.43;;;;;;;;;;5017003;28;20148;-51
2024/02/06 06:27:49;;;;;;;94.47;89.75;;;;;;;;;;5018392;28;20033;-51
2024/02/06 06:30:15;;;;;;;97.10;92.25;;;;;;;;;;5015019;28;20526;-52
2024/02/06 06:32:41;;;;;;;102.10;97.00;;;;;;;;;;5015843;28;20557;-49
2024/02/06 06:35:08;;;;;;;95.90;91.05;;;;;;;;;;5031617;28;20111;-51
2024/02/06 06:37:33;;;;;;;111.78;106.03;;;;;;;;;;5017933;28;20121;-50
2024/02/06 06:40:01;;;;;;;114.57;108.72;;;;;;;;;;5021427;28;20112;-50
2024/02/06 06:42:27;;;;;;;114.65;108.95;;;;;;;;;;5018811;28;20124;-51
2024/02/06 06:44:52;;;;;;;117.55;111.72;;;;;;;;;;5017055;28;20183;-49
2024/02/06 06:47:18;;;;;;;125.95;119.65;;;;;;;;;;5018521;28;20033;-63
2024/02/06 06:49:43;;;;;;;133.45;126.72;;;;;;;;;;5017402;28;20048;-63
2024/02/06 06:52:09;;;;;;;132.45;125.80;;;;;;;;;;5017284;28;20028;-64
2024/02/06 06:54:35;;;;;;;128.13;121.70;;;;;;;;;;5017163;28;20034;-63
2024/02/06 06:57:03;;;;;;;131.57;124.70;;;;;;;;;;5016872;28;20037;-63
2024/02/06 06:59:32;;;;;;;130.73;124.18;;;;;;;;;;5017195;28;20155;-63
2024/02/06 07:01:58;;;;;;;140.98;133.95;;;;;;;;;;5017957;28;20188;-63
2024/02/06 07:04:25;;;;;;;166.13;157.80;;;;;;;;;;5017133;28;20044;-63
2024/02/06 07:06:51;;;;;;;171.40;162.68;;;;;;;;;;5052351;28;20616;-64
2024/02/06 07:09:16;;;;;;;179.38;170.38;;;;;;;;;;5017729;28;20208;-63
2024/02/06 07:11:43;;;;;;;161.52;153.40;;;;;;;;;;5020694;28;20486;-64
2024/02/06 07:14:09;;;;;;;173.98;165.25;;;;;;;;;;5020429;28;20462;-64
2024/02/06 07:16:34;;;;;;;180.75;171.73;;;;;;;;;;5019587;28;20056;-63
2024/02/06 07:18:59;;;;;;;184.82;175.63;;;;;;;;;;5021252;28;20033;-63
2024/02/06 07:21:26;;;;;;;182.43;173.35;;;;;;;;;;5022328;28;20080;-63
2024/02/06 07:23:52;;;;;;;177.15;168.38;;;;;;;;;;5018698;28;20498;-63
2024/02/06 07:26:18;;;;;;;190.93;181.30;;;;;;;;;;5021257;28;23416;-64
2024/02/06 07:28:43;;;;;;;180.68;171.68;;;;;;;;;;5018741;28;20155;-63
2024/02/06 07:31:09;;;;;;;192.80;183.23;;;;;;;;;;5020850;28;20045;-63
2024/02/06 07:33:35;;;;;;;180.80;171.77;;;;;;;;;;5021305;28;20120;-64
2024/02/06 07:36:00;;;;;;;176.15;167.35;;;;;;;;;;5017861;28;20105;-62
2024/02/06 07:38:25;;;;;;;176.13;167.30;;;;;;;;;;5025230;28;20423;-64
2024/02/06 07:40:50;;;;;;;172.82;164.15;;;;;;;;;;5019782;28;20037;-63
2024/02/06 07:43:16;;;;;;;156.15;148.32;;;;;;;;;;5017632;28;20041;-63
2024/02/06 07:45:41;;;;;;;148.43;141.00;;;;;;;;;;5019501;28;20025;-64
2024/02/06 07:48:07;;;;;;;151.45;143.63;;;;;;;;;;5022310;28;20037;-63
2024/02/06 07:50:33;;;;;;;160.07;152.10;;;;;;;;;;5020130;28;21393;-64
2024/02/06 07:52:59;;;;;;;140.95;133.90;;;;;;;;;;5023749;28;20049;-64
2024/02/06 07:55:24;;;;;;;139.48;132.50;;;;;;;;;;5022647;28;20098;-63
2024/02/06 07:57:49;;;;;;;137.55;130.68;;;;;;;;;;5020564;28;20083;-64
2024/02/06 08:00:15;;;;;;;133.60;125.55;;;;;;;;;;5025672;28;20464;-64
2024/02/06 08:02:40;;;;;;;123.55;117.32;;;;;;;;;;5021281;28;20701;-64
2024/02/06 08:05:06;;;;;;;118.93;111.38;;;;;;;;;;5020101;28;20048;-64
2024/02/06 08:07:32;;;;;;;110.80;105.13;;;;;;;;;;5019962;28;20030;-67
2024/02/06 08:09:57;;;;;;;100.50;95.47;;;;;;;;;;5020418;28;20049;-62
2024/02/06 08:12:23;;;;;;;100.78;95.53;;;;;;;;;;5024581;28;20021;-61
2024/02/06 08:14:49;;;;;;;94.45;89.72;;;;;;;;;;5024051;28;20111;-63
2024/02/06 08:17:15;;;;;;;91.32;86.75;;;;;;;;;;5020312;28;20097;-64
2024/02/06 08:19:40;;;;;;;87.93;83.43;;;;;;;;;;5018225;28;20053;-49
2024/02/06 08:22:05;;;;;;;89.43;84.95;;;;;;;;;;5034478;28;20041;-53
2024/02/06 08:24:31;;;;;;;95.75;90.93;;;;;;;;;;5019297;28;20451;-51
2024/02/06 08:26:56;;;;;;;85.60;81.28;;;;;;;;;;5018832;28;20084;-49
2024/02/06 08:29:21;;;;;;;81.68;77.55;;;;;;;;;;5018279;28;20562;-50
2024/02/06 08:31:47;;;;;;;77.25;73.35;;;;;;;;;;5025647;28;20029;-51
2024/02/06 08:34:13;;;;;;;83.70;79.53;;;;;;;;;;5016985;28;20080;-50
2024/02/06 08:36:39;;;;;;;83.85;79.65;;;;;;;;;;5017916;28;21158;-49
2024/02/06 08:39:06;;;;;;;80.07;75.57;;;;;;;;;;5021757;28;20097;-51
2024/02/06 08:41:35;;;;;;;86.93;82.55;;;;;;;;;;5020477;28;20121;-51
2024/02/06 08:44:00;;;;;;;90.57;86.00;;;;;;;;;;5020621;28;20486;-51
2024/02/06 08:46:27;;;;;;;79.65;75.65;;;;;;;;;;5023087;28;20044;-53
2024/02/06 08:48:53;;;;;;;83.13;78.90;;;;;;;;;;5018323;28;20065;-54
2024/02/06 08:51:18;;;;;;;92.38;87.38;;;;;;;;;;5020631;28;20523;-51
2024/02/06 08:53:44;;;;;;;90.10;85.55;;;;;;;;;;5019579;28;20059;-49
2024/02/06 08:56:10;;;;;;;88.82;84.38;;;;;;;;;;5019801;28;20041;-47
2024/02/06 08:58:35;;;;;;;87.70;83.32;;;;;;;;;;5021341;28;20037;-52
2024/02/06 09:01:01;;;;;;;84.88;80.25;;;;;;;;;;5021437;28;20041;-49
2024/02/06 09:03:27;;;;;;;90.93;86.18;;;;;;;;;;5018005;28;20079;-50
2024/02/06 09:05:52;;;;;;;80.65;76.57;;;;;;;;;;5015865;28;20083;-51
2024/02/06 09:08:17;;;;;;;82.88;78.72;;;;;;;;;;5020089;28;20033;-52
2024/02/06 09:10:43;;;;;;;84.07;79.45;;;;;;;;;;5017082;28;20041;-49
2024/02/06 09:13:08;;;;;;;81.30;77.05;;;;;;;;;;5019601;28;20034;-50
2024/02/06 09:15:33;;;;;;;90.82;86.30;;;;;;;;;;5018165;28;20578;-51
2024/02/06 09:18:00;;;;;;;83.15;78.97;;;;;;;;;;5020159;28;20041;-52
2024/02/06 09:20:26;;;;;;;76.15;72.32;;;;;;;;;;5022043;28;20753;-53
2024/02/06 09:22:51;;;;;;;81.22;77.07;;;;;;;;;;5019640;28;20030;-53
2024/02/06 09:25:17;;;;;;;80.53;76.35;;;;;;;;;;5016619;28;20241;-52
2024/02/06 09:27:45;;;;;;;74.20;70.45;;;;;;;;;;5017647;28;20048;-49
2024/02/06 09:30:11;;;;;;;70.90;66.93;;;;;;;;;;5017296;28;20058;-51
2024/02/06 09:32:39;;;;;;;75.88;72.07;;;;;;;;;;5017703;28;20433;-49
2024/02/06 09:35:05;;;;;;;71.05;67.45;;;;;;;;;;5018779;28;20129;-51
2024/02/06 09:37:30;;;;;;;79.60;75.57;;;;;;;;;;5018165;28;20124;-50
2024/02/06 09:39:55;;;;;;;73.75;70.03;;;;;;;;;;5020310;28;20459;-49
2024/02/06 09:42:22;;;;;;;72.38;68.57;;;;;;;;;;5017445;28;20037;-46
2024/02/06 09:44:48;;;;;;;72.47;68.50;;;;;;;;;;5018165;28;20033;-48
2024/02/06 09:47:13;;;;;;;68.20;64.80;;;;;;;;;;5016930;28;20085;-50
2024/02/06 09:49:39;;;;;;;69.75;66.18;;;;;;;;;;5019683;28;20387;-51
2024/02/06 09:52:05;;;;;;;74.93;70.45;;;;;;;;;;5002590;28;20061;-49
2024/02/06 09:54:32;;;;;;;68.70;65.22;;;;;;;;;;5019001;28;20029;-50
2024/02/06 09:56:59;;;;;;;71.97;68.35;;;;;;;;;;5018262;28;20115;-51
2024/02/06 09:59:25;;;;;;;74.03;70.25;;;;;;;;;;5017453;28;20582;-51
2024/02/06 10:01:51;;;;;;;80.03;74.65;;;;;;;;;;5016955;28;20045;-54
2024/02/06 10:04:20;;;;;;;73.40;69.60;;;;;;;;;;5019773;28;20044;-49
2024/02/06 10:06:47;;;;;;;72.68;68.97;;;;;;;;;;5020524;28;20048;-53
2024/02/06 10:09:14;;;;;;;69.80;66.18;;;;;;;;;;5017031;28;20022;-49
2024/02/06 10:11:39;;;;;;;70.90;67.30;;;;;;;;;;5019052;28;20037;-49
2024/02/06 10:14:05;;;;;;;73.60;69.90;;;;;;;;;;5016902;28;20479;-50
2024/02/06 10:16:32;;;;;;;69.03;65.43;;;;;;;;;;5017825;28;20025;-49
2024/02/06 10:18:59;;;;;;;71.25;67.68;;;;;;;;;;5016298;28;20037;-49
2024/02/06 10:21:25;;;;;;;72.97;69.28;;;;;;;;;;5016077;28;20490;-47
2024/02/06 10:23:58;;;;;;;74.13;70.32;;;;;;;;;;5020793;28;20060;-52
2024/02/06 10:26:24;;;;;;;71.38;67.65;;;;;;;;;;5019783;28;20086;-47
2024/02/06 10:28:49;;;;;;;68.35;64.85;;;;;;;;;;5015811;28;20034;-51
2024/02/06 10:31:15;;;;;;;66.75;63.40;;;;;;;;;;5018198;28;20029;-49
2024/02/06 10:33:42;;;;;;;65.32;62.08;;;;;;;;;;5014165;28;20061;-50
2024/02/06 10:36:07;;;;;;;63.25;60.05;;;;;;;;;;5018183;28;20383;-50
2024/02/06 10:38:33;;;;;;;67.47;63.97;;;;;;;;;;5017865;28;20029;-51
2024/02/06 10:40:59;;;;;;;64.80;61.50;;;;;;;;;;5014497;28;20041;-48
2024/02/06 10:43:29;;;;;;;66.47;63.08;;;;;;;;;;5017274;28;20069;-48
2024/02/06 10:45:58;;;;;;;67.32;63.92;;;;;;;;;;5016875;28;20037;-51
2024/02/06 10:48:24;;;;;;;62.13;59.00;;;;;;;;;;5020650;28;20041;-52
2024/02/06 10:51:00;;;;;;;64.55;61.28;;;;;;;;;;5016956;28;20034;-53
2024/02/06 10:53:26;;;;;;;63.38;60.15;;;;;;;;;;5018817;28;20026;-52
2024/02/06 10:56:04;;;;;;;60.20;57.15;;;;;;;;;;5022519;28;20108;-53
2024/02/06 10:58:39;;;;;;;60.67;57.63;;;;;;;;;;5022009;28;20041;-52
2024/02/06 11:01:08;;;;;;;59.10;56.13;;;;;;;;;;5037643;28;20150;-54
2024/02/06 11:03:46;;;;;;;58.22;55.25;;;;;;;;;;5022920;28;20033;-52
2024/02/06 11:06:21;;;;;;;55.58;52.67;;;;;;;;;;5017469;28;20048;-53
2024/02/06 11:08:47;;;;;;;50.38;47.80;;;;;;;;;;5022683;28;20049;-51
2024/02/06 11:11:14;;;;;;;49.28;46.72;;;;;;;;;;5018232;28;20041;-50
2024/02/06 11:13:48;;;;;;;58.92;55.92;;;;;;;;;;5023695;28;20119;-49
2024/02/06 11:16:17;;;;;;;58.10;54.78;;;;;;;;;;5020786;28;20068;-52
2024/02/06 11:19:05;;;;;;;60.05;57.05;;;;;;;;;;5023989;28;20120;-48
2024/02/06 11:21:35;;;;;;;56.95;53.95;;;;;;;;;;5018380;28;20051;-49
2024/02/06 11:24:02;;;;;;;58.38;55.38;;;;;;;;;;5017909;28;20048;-51
2024/02/06 11:26:27;;;;;;;56.90;53.90;;;;;;;;;;5016537;28;20033;-50
2024/02/06 11:28:54;;;;;;;54.78;52.00;;;;;;;;;;5021082;28;20033;-55
2024/02/06 11:31:20;;;;;;;57.05;54.15;;;;;;;;;;5017436;28;20034;-50
2024/02/06 11:33:46;;;;;;;55.22;52.30;;;;;;;;;;5020856;28;20030;-48
2024/02/06 11:36:12;;;;;;;56.75;53.85;;;;;;;;;;5021239;28;20037;-50
2024/02/06 11:38:38;;;;;;;55.88;53.05;;;;;;;;;;5019495;28;20040;-50
2024/02/06 11:41:09;;;;;;;52.80;50.10;;;;;;;;;;5016798;28;20041;-51
2024/02/06 11:43:34;;;;;;;57.30;54.33;;;;;;;;;;5018422;28;20096;-51
2024/02/06 11:46:00;;;;;;;53.58;50.88;;;;;;;;;;5018051;28;20037;-49
2024/02/06 11:48:26;;;;;;;53.53;50.83;;;;;;;;;;5018335;28;20048;-50
2024/02/06 11:50:51;;;;;;;54.70;51.90;;;;;;;;;;5019789;28;20105;-53
2024/02/06 11:53:17;;;;;;;59.58;56.40;;;;;;;;;;5019734;28;20038;-51
2024/02/06 11:55:44;;;;;;;52.70;50.00;;;;;;;;;;5025040;28;20030;-51
2024/02/06 11:58:10;;;;;;;52.75;50.05;;;;;;;;;;5018103;28;20914;-50
2024/02/06 12:00:36;;;;;;;56.75;53.85;;;;;;;;;;5019201;28;20829;-49
2024/02/06 12:03:02;;;;;;;52.78;50.08;;;;;;;;;;5019599;28;20041;-49
2024/02/06 12:05:36;;;;;;;52.78;49.95;;;;;;;;;;5017002;28;20049;-49
2024/02/06 12:08:01;;;;;;;51.83;49.13;;;;;;;;;;5017529;28;20112;-50
2024/02/06 12:10:30;;;;;;;56.55;52.33;;;;;;;;;;5018737;28;20041;-49
2024/02/06 12:13:04;;;;;;;50.75;47.85;;;;;;;;;;5019264;28;20038;-50
2024/02/06 12:15:37;;;;;;;49.28;46.78;;;;;;;;;;5022236;28;20038;-49
2024/02/06 12:18:06;;;;;;;50.60;47.80;;;;;;;;;;5018917;28;20069;-49
2024/02/06 12:20:33;;;;;;;46.67;44.28;;;;;;;;;;5019885;28;20033;-50
2024/02/06 12:22:59;;;;;;;45.65;43.25;;;;;;;;;;5019793;28;20553;-51
2024/02/06 12:25:26;;;;;;;40.35;38.25;;;;;;;;;;5019341;28;20038;-52
2024/02/06 12:28:03;;;;;;;40.42;38.33;;;;;;;;;;5020664;28;20043;-52
2024/02/06 12:30:30;;;;;;;37.85;35.90;;;;;;;;;;5020421;28;20497;-50
2024/02/06 12:32:58;;;;;;;41.17;38.97;;;;;;;;;;5019797;28;20479;-52
2024/02/06 12:35:24;;;;;;;37.97;35.97;;;;;;;;;;5020150;28;20033;-53
2024/02/06 12:37:49;;;;;;;41.92;39.67;;;;;;;;;;5018907;28;20033;-51
2024/02/06 12:40:18;;;;;;;37.15;33.92;;;;;;;;;;5019313;28;20087;-53
2024/02/06 12:42:45;;;;;;;33.38;31.67;;;;;;;;;;5022336;28;20044;-52
2024/02/06 12:45:12;;;;;;;34.75;32.30;;;;;;;;;;5019002;28;20033;-50
2024/02/06 12:47:37;;;;;;;31.88;30.20;;;;;;;;;;5018260;28;20041;-48
2024/02/06 12:50:04;;;;;;;31.83;30.13;;;;;;;;;;5018635;28;20037;-52
2024/02/06 12:52:30;;;;;;;30.83;29.13;;;;;;;;;;5016844;28;20033;-50
2024/02/06 12:54:56;;;;;;;29.67;27.95;;;;;;;;;;5017965;28;20120;-47
2024/02/06 12:57:22;;;;;;;30.67;29.08;;;;;;;;;;5018745;28;20029;-49
2024/02/06 12:59:48;;;;;;;27.80;26.20;;;;;;;;;;5018947;28;20056;-50
2024/02/06 13:02:14;;;;;;;28.30;26.55;;;;;;;;;;5021742;28;20038;-52
2024/02/06 13:04:39;;;;;;;27.50;26.00;;;;;;;;;;5018301;28;20094;-53
2024/02/06 13:07:05;;;;;;;26.02;24.63;;;;;;;;;;5022168;28;20414;-54
2024/02/06 13:09:30;;;;;;;27.70;26.23;;;;;;;;;;5019400;28;20143;-49
2024/02/06 13:11:56;;;;;;;25.75;24.23;;;;;;;;;;5022980;28;20121;-63
2024/02/06 13:14:25;;;;;;;24.63;23.23;;;;;;;;;;5018172;28;20038;-54
2024/02/06 13:16:52;;;;;;;25.30;23.95;;;;;;;;;;5018648;28;20060;-52
2024/02/06 13:19:23;;;;;;;24.42;23.08;;;;;;;;;;5017658;28;20056;-53
2024/02/06 13:21:52;;;;;;;25.90;24.10;;;;;;;;;;5020644;28;20175;-53
2024/02/06 13:24:17;;;;;;;23.70;22.40;;;;;;;;;;5019375;28;20029;-55
2024/02/06 13:26:44;;;;;;;24.90;23.48;;;;;;;;;;5017998;28;20041;-52
2024/02/06 13:29:09;;;;;;;24.50;22.38;;;;;;;;;;5016991;28;20048;-64
2024/02/06 13:31:35;;;;;;;24.48;23.13;;;;;;;;;;5018188;28;20026;-55
2024/02/06 13:34:00;;;;;;;24.95;23.55;;;;;;;;;;5018185;28;20462;-50
2024/02/06 13:36:25;;;;;;;27.65;26.15;;;;;;;;;;5018453;28;20037;-65
2024/02/06 13:38:51;;;;;;;25.95;24.35;;;;;;;;;;5020631;28;20471;-55
2024/02/06 13:41:16;;;;;;;26.00;24.60;;;;;;;;;;5017769;28;20038;-52
2024/02/06 13:43:42;;;;;;;27.15;25.55;;;;;;;;;;5020058;28;20128;-65
2024/02/06 13:46:08;;;;;;;30.80;29.20;;;;;;;;;;5017277;28;20057;-53
2024/02/06 13:48:34;;;;;;;26.95;25.23;;;;;;;;;;5048612;28;20116;-54
2024/02/06 13:50:59;;;;;;;29.52;27.92;;;;;;;;;;5017036;28;20120;-55
2024/02/06 13:53:24;;;;;;;29.92;28.33;;;;;;;;;;5015701;28;20037;-65
2024/02/06 13:55:50;;;;;;;31.85;30.13;;;;;;;;;;5030603;28;20034;-53
2024/02/06 13:58:15;;;;;;;33.80;30.55;;;;;;;;;;5018680;28;20025;-65
2024/02/06 14:00:42;;;;;;;39.33;37.08;;;;;;;;;;5017304;28;20033;-66
2024/02/06 14:03:07;;;;;;;30.25;28.65;;;;;;;;;;5017718;28;20064;-65
2024/02/06 14:05:33;;;;;;;34.03;32.17;;;;;;;;;;5018625;28;20112;-65